Terminal Aerodrome Forecast
Issued by NWS

Home | Current Version | Previous Version | Text Only | Print | Product List | Glossary On
Versions: 1 2 3 4 5 6 7 8 9 10 11 12 13 14 15 16 17 18 19 20 21 22 23 24 25 26 27 28 29 30 31 32 33 34
000
FTUS44 KFWD 232100 AAB
TAFGKY
TAF AMD
KGKY 232101Z 2321/2418 27017G27KT P6SM SKC
     FM232200 28020G30KT P6SM FEW035
     FM240100 31018KT P6SM SCT035
     FM240600 31009KT P6SM FEW035 FEW100=

USA.gov is the U.S. government's official web portal to all federal, state and local government web resources and services.